Time;durP1;ratioP1;P1;durP2;ratioP2;P2;SDS_P1;SDS_P2;PMS_P1;PMS_P2;Temp;Humidity;BMP_temperature;BMP_pressure;BME280_temperature;BME280_humidity;BME280_pressure;Samples;Min_cycle;Max_cycle;Signal;HPM_P1;HPM_P2
2022/11/18 00:00:55;;;;;;;16.90;13.13;;;7.70;99.90;;;;;;5009464;28;20126;-68
2022/11/18 00:03:21;;;;;;;16.20;13.07;;;7.70;99.90;;;;;;5009714;28;20061;-68
2022/11/18 00:05:56;;;;;;;16.52;12.18;;;7.80;99.90;;;;;;5011473;28;20410;-68
2022/11/18 00:08:26;;;;;;;17.50;12.80;;;7.80;99.90;;;;;;5014581;28;20128;-68
2022/11/18 00:10:52;;;;;;;15.02;11.88;;;7.80;99.90;;;;;;5014008;28;20138;-68
2022/11/18 00:16:09;;;;;;;17.42;13.07;;;7.80;99.90;;;;;;5029553;28;20046;-68
2022/11/18 00:18:35;;;;;;;17.77;14.30;;;7.80;99.90;;;;;;4980184;28;20399;-69
2022/11/18 00:21:08;;;;;;;19.48;15.80;;;7.70;99.90;;;;;;4995415;28;20077;-68
2022/11/18 00:23:34;;;;;;;19.02;12.50;;;7.60;99.90;;;;;;4998790;28;20116;-68
2022/11/18 00:26:13;;;;;;;18.20;13.25;;;7.80;99.90;;;;;;4998209;28;20120;-68
2022/11/18 00:28:39;;;;;;;16.85;13.77;;;7.90;99.90;;;;;;4999803;28;20052;-68
2022/11/18 00:31:08;;;;;;;14.32;10.65;;;7.90;99.90;;;;;;5014109;28;20065;-68
2022/11/18 00:33:35;;;;;;;16.15;11.50;;;7.90;99.90;;;;;;4999369;28;20085;-68
2022/11/18 00:36:02;;;;;;;16.52;13.05;;;7.80;99.90;;;;;;5016066;28;20101;-68
2022/11/18 00:38:29;;;;;;;16.80;12.80;;;7.80;99.90;;;;;;5016019;28;20478;-68
2022/11/18 00:41:00;;;;;;;18.27;13.88;;;7.80;99.90;;;;;;5014159;28;20046;-68
2022/11/18 00:43:25;;;;;;;18.75;14.82;;;7.80;99.90;;;;;;4998009;28;20046;-68
2022/11/18 00:45:51;;;;;;;18.48;13.13;;;7.80;99.90;;;;;;4995934;28;20035;-68
2022/11/18 00:48:20;;;;;;;18.13;14.30;;;7.80;99.90;;;;;;4981847;28;20080;-68
2022/11/18 00:50:56;;;;;;;18.30;13.75;;;7.80;99.90;;;;;;5015084;28;20041;-68
2022/11/18 00:53:24;;;;;;;18.60;14.05;;;7.90;99.90;;;;;;5015694;28;20128;-68
2022/11/18 00:55:49;;;;;;;19.58;14.60;;;7.80;99.90;;;;;;4998142;28;20050;-68
2022/11/18 00:58:16;;;;;;;19.20;14.07;;;7.80;99.90;;;;;;4994823;28;20040;-68
2022/11/18 01:00:43;;;;;;;22.40;16.10;;;7.80;99.90;;;;;;4993736;28;20076;-68
2022/11/18 01:03:11;;;;;;;20.23;14.48;;;7.80;99.90;;;;;;5014340;28;20461;-68
2022/11/18 01:05:38;;;;;;;21.45;15.98;;;7.80;99.90;;;;;;4999004;28;20041;-68
2022/11/18 01:08:06;;;;;;;20.00;14.50;;;7.80;99.90;;;;;;4998925;28;20088;-68
2022/11/18 01:10:32;;;;;;;19.73;14.90;;;7.80;99.90;;;;;;5014229;28;20042;-68
2022/11/18 01:15:43;;;;;;;19.98;14.88;;;7.80;99.90;;;;;;5014349;28;20053;-68
2022/11/18 01:18:09;;;;;;;18.02;13.85;;;7.80;99.90;;;;;;5015025;28;20118;-68
2022/11/18 01:20:35;;;;;;;18.50;14.07;;;7.80;99.90;;;;;;5013572;28;20482;-68
2022/11/18 01:23:01;;;;;;;20.10;16.00;;;7.80;99.90;;;;;;5014735;28;20130;-68
2022/11/18 01:25:27;;;;;;;21.20;14.40;;;7.70;99.90;;;;;;5011915;28;20456;-68
2022/11/18 01:27:53;;;;;;;24.05;15.88;;;7.70;99.90;;;;;;5031191;28;20042;-68
2022/11/18 01:30:19;;;;;;;20.00;15.07;;;7.60;99.90;;;;;;5011184;28;20598;-68
2022/11/18 01:32:44;;;;;;;19.45;15.23;;;7.70;99.90;;;;;;4995115;28;20073;-68
2022/11/18 01:35:11;;;;;;;19.40;14.55;;;7.70;99.90;;;;;;4995106;28;20509;-68
2022/11/18 01:37:37;;;;;;;17.42;13.07;;;7.80;99.90;;;;;;4995067;28;20557;-68
2022/11/18 01:40:05;;;;;;;19.45;15.82;;;7.80;99.90;;;;;;4987302;28;20091;-68
2022/11/18 01:42:31;;;;;;;21.05;15.00;;;7.80;99.90;;;;;;4998271;28;20048;-68
2022/11/18 01:44:56;;;;;;;18.58;13.68;;;7.70;99.90;;;;;;5014798;28;20073;-68
2022/11/18 01:47:25;;;;;;;22.48;15.55;;;7.70;99.90;;;;;;5013758;28;20045;-68
2022/11/18 01:49:51;;;;;;;21.10;14.75;;;7.70;99.90;;;;;;4994508;28;20041;-68
2022/11/18 01:52:17;;;;;;;19.50;16.02;;;7.70;99.90;;;;;;4998144;28;20034;-68
2022/11/18 01:54:47;;;;;;;18.92;14.68;;;7.60;99.90;;;;;;5012719;28;20093;-68
2022/11/18 01:57:16;;;;;;;19.30;13.93;;;7.70;99.90;;;;;;5014260;28;20120;-68
2022/11/18 01:59:44;;;;;;;20.98;15.52;;;7.70;99.90;;;;;;5013443;28;20045;-68
2022/11/18 02:02:13;;;;;;;19.70;15.02;;;7.70;99.90;;;;;;5014007;28;20041;-68
2022/11/18 02:04:42;;;;;;;19.70;14.32;;;7.60;99.90;;;;;;4997672;28;20507;-68
2022/11/18 02:07:09;;;;;;;21.25;16.00;;;7.70;99.90;;;;;;4997724;28;20042;-68
2022/11/18 02:09:36;;;;;;;21.38;15.43;;;7.70;99.90;;;;;;5013726;28;20395;-68
2022/11/18 02:12:02;;;;;;;23.65;15.98;;;7.70;99.90;;;;;;5013459;28;20125;-68
2022/11/18 02:14:41;;;;;;;21.25;16.13;;;7.60;99.90;;;;;;4997021;28;20096;-68
2022/11/18 02:17:32;;;;;;;23.33;16.13;;;7.60;99.90;;;;;;4996589;28;20045;-68
2022/11/18 02:20:19;;;;;;;20.10;14.90;;;7.60;99.90;;;;;;5012294;28;20046;-68
2022/11/18 02:23:03;;;;;;;23.50;16.55;;;7.60;99.90;;;;;;5013007;28;20096;-68
2022/11/18 02:25:43;;;;;;;22.25;15.38;;;7.60;99.90;;;;;;5013860;28;20045;-68
2022/11/18 02:28:34;;;;;;;21.92;16.83;;;7.70;99.90;;;;;;5012737;28;20077;-69
2022/11/18 02:31:23;;;;;;;20.52;16.40;;;7.60;99.90;;;;;;4992417;28;20069;-68
2022/11/18 02:33:54;;;;;;;22.77;14.82;;;7.60;99.90;;;;;;4994129;28;20042;-68
2022/11/18 02:36:38;;;;;;;22.38;15.68;;;7.60;99.90;;;;;;4991273;28;20083;-68
2022/11/18 02:39:15;;;;;;;22.85;15.25;;;7.60;99.90;;;;;;4995580;28;20562;-68
2022/11/18 02:41:43;;;;;;;24.58;16.98;;;7.60;99.90;;;;;;5013435;28;20498;-68
2022/11/18 02:44:12;;;;;;;21.73;15.77;;;7.50;99.90;;;;;;5012610;28;20072;-68
2022/11/18 02:46:39;;;;;;;22.30;15.68;;;7.50;99.90;;;;;;5012596;28;20042;-68
2022/11/18 02:49:14;;;;;;;23.63;16.45;;;7.60;99.90;;;;;;5012096;28;20053;-68
2022/11/18 02:51:41;;;;;;;22.73;15.50;;;7.50;99.90;;;;;;4997338;28;20360;-68
2022/11/18 02:54:10;;;;;;;19.33;14.82;;;7.50;99.90;;;;;;5012459;28;20049;-68
2022/11/18 02:56:36;;;;;;;24.42;16.17;;;7.60;99.90;;;;;;5013506;28;20402;-68
2022/11/18 02:59:03;;;;;;;20.98;13.65;;;7.70;99.90;;;;;;4995119;28;20038;-68
2022/11/18 03:01:31;;;;;;;22.77;15.82;;;7.60;99.90;;;;;;5013292;28;20494;-68
2022/11/18 03:03:56;;;;;;;22.48;14.77;;;7.60;99.90;;;;;;4995413;28;20058;-68
2022/11/18 03:06:38;;;;;;;19.60;13.57;;;7.60;99.90;;;;;;4993844;28;20038;-68
2022/11/18 03:09:06;;;;;;;19.23;15.07;;;7.60;99.90;;;;;;5011898;28;20045;-68
2022/11/18 03:11:46;;;;;;;23.00;14.65;;;7.60;99.90;;;;;;4996219;28;20042;-68
2022/11/18 03:14:31;;;;;;;17.63;11.82;;;7.60;99.90;;;;;;4995525;28;20045;-68
2022/11/18 03:17:07;;;;;;;19.30;15.18;;;7.70;99.90;;;;;;5011184;28;20046;-68
2022/11/18 03:20:11;;;;;;;21.25;13.38;;;7.60;99.90;;;;;;5011230;28;20042;-68
2022/11/18 03:22:50;;;;;;;22.27;15.05;;;7.70;99.90;;;;;;5012403;28;20050;-68
2022/11/18 03:25:27;;;;;;;21.50;15.10;;;7.60;99.90;;;;;;5012177;28;20042;-68
2022/11/18 03:27:55;;;;;;;21.55;15.43;;;7.50;99.90;;;;;;5012962;28;20046;-68
2022/11/18 03:30:23;;;;;;;25.25;15.90;;;7.40;99.90;;;;;;4992249;28;20034;-68
2022/11/18 03:32:55;;;;;;;22.60;14.65;;;7.40;99.90;;;;;;4992902;28;20046;-68
2022/11/18 03:35:24;;;;;;;20.33;14.40;;;7.50;99.90;;;;;;4988046;28;20568;-68
2022/11/18 03:37:57;;;;;;;18.75;13.05;;;7.60;99.90;;;;;;5012513;28;20046;-68
2022/11/18 03:40:28;;;;;;;21.13;14.82;;;7.50;99.90;;;;;;5010439;28;20518;-68
2022/11/18 03:43:17;;;;;;;19.58;13.55;;;7.50;99.90;;;;;;4995596;28;20045;-68
2022/11/18 03:45:45;;;;;;;18.95;13.77;;;7.60;99.90;;;;;;4994123;28;20498;-68
2022/11/18 03:48:16;;;;;;;20.13;13.57;;;7.40;99.90;;;;;;5012641;28;20128;-68
2022/11/18 03:50:47;;;;;;;20.05;14.95;;;7.50;99.90;;;;;;4995656;28;20039;-68
2022/11/18 03:53:16;;;;;;;19.48;13.18;;;7.40;99.90;;;;;;5012550;28;20085;-68
2022/11/18 03:55:48;;;;;;;19.90;13.27;;;7.40;99.90;;;;;;5011544;28;20037;-68
2022/11/18 03:58:40;;;;;;;21.13;13.45;;;7.30;99.90;;;;;;4994962;28;20133;-68
2022/11/18 04:01:13;;;;;;;19.90;13.00;;;7.30;99.90;;;;;;5011561;28;20042;-68
2022/11/18 04:03:38;;;;;;;17.50;12.45;;;7.40;99.90;;;;;;5011922;28;20066;-68
2022/11/18 04:06:18;;;;;;;20.42;14.07;;;7.40;99.90;;;;;;5011293;28;20060;-68
2022/11/18 04:08:48;;;;;;;16.67;11.45;;;7.40;99.90;;;;;;4996172;28;20434;-68
2022/11/18 04:14:05;;;;;;;15.80;11.00;;;7.50;99.90;;;;;;5011599;28;20497;-68
2022/11/18 04:16:39;;;;;;;18.73;13.00;;;7.60;99.90;;;;;;5010949;28;20409;-69
2022/11/18 04:19:04;;;;;;;20.13;13.90;;;7.50;99.90;;;;;;4994976;28;20121;-68
2022/11/18 04:21:30;;;;;;;19.00;12.63;;;7.30;99.90;;;;;;5012330;28;20549;-68
2022/11/18 04:23:56;;;;;;;17.05;12.45;;;7.30;99.90;;;;;;5011202;28;20052;-68
2022/11/18 04:26:21;;;;;;;18.05;11.77;;;7.30;99.90;;;;;;4995962;28;20124;-68
2022/11/18 04:28:47;;;;;;;18.55;12.40;;;7.40;99.90;;;;;;4995667;28;20038;-68
2022/11/18 04:31:12;;;;;;;18.20;13.23;;;7.40;99.90;;;;;;4994410;28;20508;-68
2022/11/18 04:33:38;;;;;;;20.80;13.68;;;7.30;99.90;;;;;;4995586;28;20056;-68
2022/11/18 04:36:03;;;;;;;17.85;11.98;;;7.30;99.90;;;;;;5011860;28;20096;-68
2022/11/18 04:38:29;;;;;;;17.30;13.00;;;7.30;99.90;;;;;;4995637;28;20095;-68
2022/11/18 04:40:55;;;;;;;16.25;12.30;;;7.30;99.90;;;;;;4994969;28;20049;-68
2022/11/18 04:43:20;;;;;;;19.40;13.48;;;7.30;99.90;;;;;;5011023;28;20088;-68
2022/11/18 04:45:46;;;;;;;22.27;14.02;;;7.30;99.90;;;;;;5004536;28;20454;-68
2022/11/18 04:48:11;;;;;;;18.80;12.27;;;7.30;99.90;;;;;;4993552;28;20038;-68
2022/11/18 04:50:37;;;;;;;19.10;12.30;;;7.40;99.90;;;;;;5011030;28;20084;-68
2022/11/18 04:53:02;;;;;;;18.75;14.07;;;7.40;99.90;;;;;;5011812;28;20092;-68
2022/11/18 04:55:28;;;;;;;17.35;12.20;;;7.40;99.90;;;;;;4997910;28;20081;-68
2022/11/18 04:57:53;;;;;;;19.27;13.57;;;7.40;99.90;;;;;;4999069;28;20113;-68
2022/11/18 05:00:21;;;;;;;16.48;11.27;;;7.30;99.90;;;;;;5014819;28;20036;-68
2022/11/18 05:02:47;;;;;;;21.30;14.25;;;7.40;99.90;;;;;;4999008;28;20401;-68
2022/11/18 05:05:13;;;;;;;19.33;12.82;;;7.30;99.90;;;;;;4995191;28;20454;-68
2022/11/18 05:07:38;;;;;;;19.50;13.82;;;7.20;99.90;;;;;;4995956;28;20042;-68
2022/11/18 05:10:04;;;;;;;16.38;10.07;;;7.30;99.90;;;;;;5007568;28;20501;-68
2022/11/18 05:12:48;;;;;;;20.00;13.27;;;7.30;99.90;;;;;;5015145;28;20463;-68
2022/11/18 05:15:24;;;;;;;21.52;13.40;;;7.30;99.90;;;;;;5009201;28;20038;-68
2022/11/18 05:17:50;;;;;;;17.23;12.52;;;7.40;99.90;;;;;;4979873;28;20034;-68
2022/11/18 05:20:15;;;;;;;19.88;13.75;;;7.40;99.90;;;;;;5014037;28;20573;-68
2022/11/18 05:22:41;;;;;;;17.70;12.15;;;7.30;99.90;;;;;;5014458;28;20037;-68
2022/11/18 05:25:07;;;;;;;18.75;13.02;;;7.30;99.90;;;;;;4998433;28;20068;-68
2022/11/18 05:27:33;;;;;;;17.58;12.75;;;7.40;99.90;;;;;;5015086;28;20125;-68
2022/11/18 05:29:58;;;;;;;20.88;13.52;;;7.30;99.90;;;;;;5014119;28;20052;-68
2022/11/18 05:32:24;;;;;;;20.63;13.88;;;7.40;99.90;;;;;;5014726;28;20494;-68
2022/11/18 05:34:50;;;;;;;19.33;12.40;;;7.50;99.90;;;;;;4997879;28;20394;-68
2022/11/18 05:37:16;;;;;;;18.95;13.27;;;7.30;99.90;;;;;;4998331;28;20037;-68
2022/11/18 05:39:41;;;;;;;22.10;12.75;;;7.30;99.90;;;;;;4997686;28;20034;-68
2022/11/18 05:44:52;;;;;;;21.52;12.82;;;7.20;99.90;;;;;;5012622;28;20065;-68
2022/11/18 05:47:18;;;;;;;18.65;12.27;;;7.20;99.90;;;;;;4998382;28;20113;-68
2022/11/18 05:49:44;;;;;;;22.08;13.68;;;7.20;99.90;;;;;;5013646;28;20494;-68
2022/11/18 05:52:09;;;;;;;17.17;12.65;;;7.30;99.90;;;;;;5014580;28;20041;-68
2022/11/18 05:54:40;;;;;;;14.20;6.65;;;7.40;99.90;;;;;;5013512;28;20041;-68
2022/11/18 05:57:06;;;;;;;18.13;10.77;;;7.30;99.90;;;;;;4997997;28;20042;-68
2022/11/18 05:59:31;;;;;;;18.05;12.13;;;7.30;99.90;;;;;;5013268;28;20038;-69
2022/11/18 06:02:05;;;;;;;21.17;13.50;;;7.30;99.90;;;;;;4994303;28;20030;-68
2022/11/18 06:04:54;;;;;;;24.30;15.85;;;7.30;99.90;;;;;;4990571;28;20061;-68
2022/11/18 06:07:26;;;;;;;20.50;13.25;;;7.00;99.90;;;;;;4997034;28;20397;-68
2022/11/18 06:09:56;;;;;;;20.70;13.27;;;7.20;99.90;;;;;;5013482;28;20106;-68
2022/11/18 06:12:25;;;;;;;22.50;14.13;;;7.10;99.90;;;;;;5013750;28;20496;-68
2022/11/18 06:14:55;;;;;;;20.55;12.63;;;7.00;99.90;;;;;;5013186;28;20038;-68
2022/11/18 06:17:26;;;;;;;32.25;14.32;;;7.10;99.90;;;;;;4996560;28;20045;-68
2022/11/18 06:19:52;;;;;;;20.05;11.32;;;7.10;99.90;;;;;;4997686;28;20494;-68
2022/11/18 06:22:17;;;;;;;18.48;12.23;;;7.10;99.90;;;;;;5009334;28;20035;-68
2022/11/18 06:24:43;;;;;;;24.08;14.23;;;7.20;99.90;;;;;;5002204;28;20042;-68
2022/11/18 06:27:10;;;;;;;20.83;12.65;;;7.10;99.90;;;;;;4992198;28;20124;-68
2022/11/18 06:29:35;;;;;;;23.30;14.85;;;7.10;99.90;;;;;;4996164;28;20049;-68
2022/11/18 06:32:01;;;;;;;21.65;13.70;;;7.00;99.90;;;;;;5009886;28;20034;-68
2022/11/18 06:34:27;;;;;;;22.58;13.85;;;7.10;99.90;;;;;;5012939;28;20037;-68
2022/11/18 06:36:52;;;;;;;23.52;13.82;;;7.00;99.90;;;;;;5013312;28;20042;-68
2022/11/18 06:39:18;;;;;;;19.52;11.90;;;7.20;99.90;;;;;;5012011;28;20506;-68
2022/11/18 06:41:43;;;;;;;22.55;13.65;;;7.00;99.90;;;;;;4982509;28;20124;-68
2022/11/18 06:44:12;;;;;;;21.83;12.68;;;7.00;99.90;;;;;;5004312;28;20042;-68
2022/11/18 06:46:54;;;;;;;22.42;13.40;;;7.00;99.90;;;;;;4979765;28;20041;-68
2022/11/18 06:49:20;;;;;;;23.65;14.18;;;7.00;99.90;;;;;;5011498;28;20046;-68
2022/11/18 06:51:45;;;;;;;28.30;14.43;;;7.00;99.90;;;;;;5025168;28;20038;-69
2022/11/18 06:54:11;;;;;;;22.80;13.68;;;6.80;99.90;;;;;;5027107;28;20041;-68
2022/11/18 06:56:37;;;;;;;21.27;13.07;;;6.90;99.90;;;;;;5010287;28;20048;-68
2022/11/18 06:59:03;;;;;;;21.85;12.95;;;7.00;99.90;;;;;;5008702;28;20048;-68
2022/11/18 07:01:30;;;;;;;22.50;12.25;;;7.00;99.90;;;;;;4994894;28;20077;-68
2022/11/18 07:03:59;;;;;;;19.27;12.02;;;7.00;99.90;;;;;;4995460;28;20054;-68
2022/11/18 07:06:28;;;;;;;19.95;12.40;;;7.00;99.90;;;;;;4996565;28;20042;-68
2022/11/18 07:08:54;;;;;;;19.35;11.13;;;7.00;99.90;;;;;;5012937;28;20029;-68
2022/11/18 07:11:24;;;;;;;22.58;15.00;;;7.10;99.90;;;;;;5008394;28;20049;-69
2022/11/18 07:13:50;;;;;;;21.65;13.30;;;6.90;99.90;;;;;;5009529;28;20136;-68
2022/11/18 07:16:22;;;;;;;24.02;13.88;;;6.90;99.90;;;;;;4992587;28;20541;-69
2022/11/18 07:18:49;;;;;;;22.15;13.15;;;7.00;99.90;;;;;;4995268;28;20117;-68
2022/11/18 07:21:20;;;;;;;24.63;14.30;;;6.90;99.90;;;;;;4994451;28;20099;-68
2022/11/18 07:23:46;;;;;;;20.23;12.52;;;6.80;99.90;;;;;;5012111;28;20580;-68
2022/11/18 07:26:13;;;;;;;26.05;14.30;;;6.90;99.90;;;;;;4995251;28;20030;-68
2022/11/18 07:28:38;;;;;;;25.70;15.35;;;6.80;99.90;;;;;;4994352;28;20124;-68
2022/11/18 07:31:11;;;;;;;23.40;14.27;;;6.80;99.90;;;;;;5011858;28;20129;-68
2022/11/18 07:33:37;;;;;;;21.85;13.20;;;6.80;99.90;;;;;;4995520;28;20037;-68
2022/11/18 07:36:14;;;;;;;23.10;13.13;;;6.80;99.90;;;;;;5012606;28;20371;-69
2022/11/18 07:38:40;;;;;;;20.25;12.13;;;6.80;99.90;;;;;;5011918;28;20041;-68
2022/11/18 07:41:17;;;;;;;20.33;11.93;;;6.80;99.90;;;;;;4995801;28;20046;-69
2022/11/18 07:43:44;;;;;;;21.42;12.52;;;6.90;99.90;;;;;;5010329;28;20065;-68
2022/11/18 07:46:18;;;;;;;24.33;14.20;;;6.80;99.90;;;;;;4998698;28;20034;-69
2022/11/18 07:48:46;;;;;;;22.67;12.68;;;6.90;99.90;;;;;;5010990;28;20561;-68
2022/11/18 07:51:13;;;;;;;21.08;13.05;;;6.80;99.90;;;;;;4996282;28;20068;-68
2022/11/18 07:53:39;;;;;;;20.77;13.15;;;6.80;99.90;;;;;;4996015;28;20050;-68
2022/11/18 07:56:06;;;;;;;22.15;13.18;;;6.80;99.90;;;;;;5012296;28;20045;-68
2022/11/18 07:58:32;;;;;;;21.50;13.00;;;6.80;99.90;;;;;;5010003;28;20558;-68
2022/11/18 08:00:57;;;;;;;21.20;12.27;;;6.70;99.90;;;;;;4992413;28;20129;-68
2022/11/18 08:03:27;;;;;;;23.60;14.13;;;6.70;99.90;;;;;;4976373;28;20089;-68
2022/11/18 08:06:03;;;;;;;22.17;13.63;;;6.60;99.90;;;;;;4992468;28;20073;-68
2022/11/18 08:08:28;;;;;;;19.58;12.70;;;6.70;99.90;;;;;;4992842;28;20405;-68
2022/11/18 08:10:56;;;;;;;20.17;12.32;;;6.70;99.90;;;;;;4976391;28;20130;-68
2022/11/18 08:13:21;;;;;;;21.08;11.80;;;6.70;99.90;;;;;;4992562;28;20049;-68
2022/11/18 08:15:47;;;;;;;18.80;11.55;;;6.70;99.90;;;;;;4992410;28;20043;-68
2022/11/18 08:18:12;;;;;;;19.95;11.02;;;6.80;99.90;;;;;;4992238;28;20518;-68
2022/11/18 08:20:38;;;;;;;18.95;12.00;;;6.80;99.90;;;;;;4992418;28;20430;-68
2022/11/18 08:23:04;;;;;;;16.52;9.70;;;6.70;99.90;;;;;;4992058;28;20073;-68
2022/11/18 08:25:29;;;;;;;16.42;10.30;;;6.80;99.90;;;;;;4992568;28;20042;-68
2022/11/18 08:27:55;;;;;;;18.80;11.13;;;6.70;99.90;;;;;;4985227;28;20041;-70
2022/11/18 08:30:21;;;;;;;17.63;10.45;;;6.70;99.90;;;;;;5013886;28;20509;-69
2022/11/18 08:32:46;;;;;;;18.13;9.75;;;6.80;99.90;;;;;;5015834;28;20042;-69
2022/11/18 08:35:12;;;;;;;14.13;8.40;;;6.80;99.90;;;;;;4991007;28;20037;-68
2022/11/18 08:37:37;;;;;;;14.05;8.55;;;6.90;99.90;;;;;;4981590;28;20077;-69
2022/11/18 08:40:03;;;;;;;14.73;8.77;;;6.90;99.90;;;;;;4992361;28;20045;-69
2022/11/18 08:42:29;;;;;;;15.25;9.02;;;6.90;99.90;;;;;;5026646;28;20049;-68
2022/11/18 08:44:55;;;;;;;14.75;9.25;;;6.70;99.90;;;;;;5026665;28;20482;-68
2022/11/18 08:47:20;;;;;;;17.63;9.10;;;6.70;99.90;;;;;;5013939;28;20379;-68
2022/11/18 08:49:46;;;;;;;13.95;8.80;;;6.80;99.90;;;;;;4994595;28;20097;-69
2022/11/18 08:52:11;;;;;;;17.42;9.85;;;6.70;99.90;;;;;;4995877;28;20041;-68
2022/11/18 08:54:37;;;;;;;17.05;10.25;;;6.70;99.90;;;;;;4995723;28;20462;-69
2022/11/18 08:57:03;;;;;;;15.40;8.23;;;6.70;99.90;;;;;;4997975;28;20065;-68
2022/11/18 08:59:28;;;;;;;14.02;8.95;;;6.70;99.90;;;;;;5002869;28;20054;-69
2022/11/18 09:01:54;;;;;;;15.02;9.73;;;6.80;99.90;;;;;;5012220;28;20053;-69
2022/11/18 09:04:20;;;;;;;14.48;8.70;;;6.60;99.90;;;;;;4997871;28;20068;-69
2022/11/18 09:06:45;;;;;;;16.80;10.27;;;6.70;99.90;;;;;;4997259;28;20046;-68
2022/11/18 09:09:11;;;;;;;15.27;8.63;;;6.70;99.90;;;;;;5014607;28;20068;-68
2022/11/18 09:11:38;;;;;;;17.13;9.52;;;6.70;99.90;;;;;;4980030;28;20038;-69
2022/11/18 09:14:03;;;;;;;17.23;9.57;;;6.80;99.90;;;;;;4997363;28;20057;-68
2022/11/18 09:16:31;;;;;;;14.68;8.43;;;6.80;99.90;;;;;;5024920;28;20605;-68
2022/11/18 09:18:57;;;;;;;16.50;10.50;;;6.90;99.90;;;;;;5014049;28;20034;-68
2022/11/18 09:21:24;;;;;;;15.07;10.07;;;6.70;99.90;;;;;;4994595;28;20069;-69
2022/11/18 09:23:50;;;;;;;18.70;10.77;;;6.80;99.90;;;;;;4994628;28;20061;-68
2022/11/18 09:26:19;;;;;;;15.70;10.60;;;6.70;99.90;;;;;;5010609;28;20100;-69
2022/11/18 09:28:45;;;;;;;18.92;11.13;;;6.60;99.90;;;;;;4993687;28;20038;-68
2022/11/18 09:31:16;;;;;;;18.10;10.73;;;6.50;99.90;;;;;;4990161;28;20107;-69
2022/11/18 09:33:42;;;;;;;20.48;11.80;;;6.50;99.90;;;;;;4998085;28;20049;-68
2022/11/18 09:36:19;;;;;;;17.10;10.48;;;6.50;99.90;;;;;;5010948;28;20053;-68
2022/11/18 09:38:45;;;;;;;16.50;10.23;;;6.40;99.90;;;;;;5013199;28;20534;-68
2022/11/18 09:41:38;;;;;;;18.15;10.48;;;6.40;99.90;;;;;;5013762;28;20136;-69
2022/11/18 09:44:13;;;;;;;14.65;8.85;;;6.50;99.90;;;;;;5012551;28;20499;-69
2022/11/18 09:46:54;;;;;;;16.40;10.40;;;6.70;99.90;;;;;;5013456;28;20126;-68
2022/11/18 09:49:27;;;;;;;14.02;9.43;;;6.60;99.90;;;;;;5013292;28;20034;-68
2022/11/18 09:51:54;;;;;;;17.05;9.40;;;6.70;99.90;;;;;;5011029;28;20069;-68
2022/11/18 09:54:23;;;;;;;15.77;10.00;;;6.70;99.90;;;;;;4994037;28;20042;-69
2022/11/18 09:56:51;;;;;;;15.52;9.60;;;6.70;99.90;;;;;;4995151;28;20088;-69
2022/11/18 09:59:18;;;;;;;15.30;9.57;;;6.70;99.90;;;;;;4999304;28;20121;-69
2022/11/18 10:01:45;;;;;;;16.55;10.25;;;6.80;99.90;;;;;;5013275;28;20048;-69
2022/11/18 10:04:16;;;;;;;16.38;10.25;;;6.70;99.90;;;;;;5011512;28;20057;-68
2022/11/18 10:06:43;;;;;;;17.88;10.77;;;6.70;99.90;;;;;;5012078;28;20049;-69
2022/11/18 10:09:37;;;;;;;17.15;10.18;;;6.60;99.90;;;;;;4995889;28;20050;-69
2022/11/18 10:12:37;;;;;;;14.48;9.30;;;6.60;99.90;;;;;;5010549;28;20033;-69
2022/11/18 10:15:25;;;;;;;17.00;10.65;;;6.60;99.90;;;;;;5006642;28;20038;-69
2022/11/18 10:18:11;;;;;;;15.95;10.00;;;6.50;99.90;;;;;;4995316;28;20042;-69
2022/11/18 10:20:58;;;;;;;16.20;9.63;;;6.50;99.90;;;;;;4998763;28;20403;-69
2022/11/18 10:23:42;;;;;;;19.83;12.57;;;6.60;99.90;;;;;;4984521;28;20043;-68
2022/11/18 10:26:08;;;;;;;16.67;10.63;;;6.50;99.90;;;;;;4995155;28;20041;-69
2022/11/18 10:28:34;;;;;;;19.58;11.07;;;6.50;99.90;;;;;;5010440;28;20034;-69
2022/11/18 10:31:08;;;;;;;17.50;11.10;;;6.40;99.90;;;;;;5010389;28;20069;-68
2022/11/18 10:33:34;;;;;;;22.50;12.95;;;6.50;99.90;;;;;;4996920;28;20046;-68
2022/11/18 10:36:26;;;;;;;19.45;11.52;;;6.40;99.90;;;;;;4993847;28;20091;-68
2022/11/18 10:39:10;;;;;;;19.60;11.68;;;6.20;99.90;;;;;;4996507;28;20096;-68
2022/11/18 10:41:44;;;;;;;18.98;10.95;;;6.30;99.90;;;;;;5008953;28;20095;-68
2022/11/18 10:44:32;;;;;;;19.60;11.23;;;6.20;99.90;;;;;;5002293;28;20072;-68
2022/11/18 10:47:24;;;;;;;20.10;12.18;;;6.20;99.90;;;;;;5010133;28;20049;-68
2022/11/18 10:49:51;;;;;;;21.77;13.40;;;6.20;99.90;;;;;;5027939;28;20393;-68
2022/11/18 10:52:17;;;;;;;22.40;14.43;;;6.40;99.90;;;;;;5010673;28;20034;-68
2022/11/18 10:54:43;;;;;;;25.25;14.23;;;6.20;99.90;;;;;;5010777;28;20450;-68
2022/11/18 10:57:20;;;;;;;23.55;13.65;;;6.20;99.90;;;;;;5006654;28;20103;-68
2022/11/18 10:59:47;;;;;;;21.77;13.70;;;6.20;99.90;;;;;;4996341;28;20046;-68
2022/11/18 11:02:21;;;;;;;20.70;12.18;;;6.20;99.90;;;;;;4993952;28;20099;-69
2022/11/18 11:04:51;;;;;;;19.67;12.68;;;6.20;99.90;;;;;;4994188;28;20113;-68
2022/11/18 11:07:36;;;;;;;21.10;11.70;;;6.30;99.90;;;;;;4992902;28;20053;-68
2022/11/18 11:10:11;;;;;;;19.92;12.30;;;6.30;99.90;;;;;;5008299;28;20046;-68
2022/11/18 11:12:55;;;;;;;23.20;13.00;;;6.10;99.90;;;;;;4995274;28;20533;-68
2022/11/18 11:15:33;;;;;;;20.15;12.52;;;6.10;99.90;;;;;;4985619;28;20045;-68
2022/11/18 11:20:47;;;;;;;20.55;11.57;;;6.00;99.90;;;;;;5010651;28;20125;-68
2022/11/18 11:23:14;;;;;;;21.10;12.02;;;6.00;99.90;;;;;;5012229;28;20128;-68
2022/11/18 11:25:55;;;;;;;24.02;13.90;;;6.00;99.90;;;;;;4995387;28;20053;-68
2022/11/18 11:28:43;;;;;;;27.42;15.75;;;5.90;99.90;;;;;;4993306;28;20049;-68
2022/11/18 11:31:23;;;;;;;23.75;12.63;;;5.70;99.90;;;;;;5010177;28;20045;-69
2022/11/18 11:34:01;;;;;;;23.98;13.52;;;5.90;99.90;;;;;;4984288;28;20088;-68
2022/11/18 11:36:49;;;;;;;22.55;13.73;;;5.90;99.90;;;;;;4993337;28;20041;-69
2022/11/18 11:39:35;;;;;;;20.25;11.13;;;5.90;99.90;;;;;;4997305;28;20057;-68
2022/11/18 11:42:39;;;;;;;22.67;13.85;;;6.10;99.90;;;;;;4992610;28;20042;-68
2022/11/18 11:45:35;;;;;;;22.80;13.02;;;6.00;99.90;;;;;;5002275;28;20049;-68
2022/11/18 11:48:19;;;;;;;24.40;14.30;;;5.90;99.90;;;;;;5010951;28;20046;-68
2022/11/18 11:50:54;;;;;;;25.55;14.23;;;5.80;99.90;;;;;;5009762;28;20038;-68
2022/11/18 11:53:48;;;;;;;20.83;11.80;;;5.80;99.90;;;;;;5010361;28;20583;-69
2022/11/18 11:56:19;;;;;;;21.98;12.25;;;5.90;99.90;;;;;;4985831;28;20064;-69
2022/11/18 11:59:05;;;;;;;20.70;11.65;;;5.70;99.90;;;;;;5010201;28;20042;-68
2022/11/18 12:02:25;;;;;;;18.88;11.02;;;5.70;99.90;;;;;;4992124;28;20073;-68
2022/11/18 12:04:57;;;;;;;20.75;12.30;;;5.70;99.90;;;;;;4971215;28;20050;-68
2022/11/18 12:07:32;;;;;;;22.23;11.85;;;5.60;99.90;;;;;;5012327;28;20087;-68
2022/11/18 12:10:01;;;;;;;21.42;13.13;;;5.60;99.90;;;;;;5008762;28;20045;-69
2022/11/18 12:12:57;;;;;;;23.02;13.25;;;5.60;99.90;;;;;;5010703;28;20046;-68
2022/11/18 12:15:40;;;;;;;20.20;10.70;;;5.50;99.90;;;;;;5007266;28;20046;-68
2022/11/18 12:18:25;;;;;;;19.13;9.93;;;5.60;99.90;;;;;;5007355;28;20040;-68
2022/11/18 12:20:52;;;;;;;19.00;11.55;;;5.70;99.90;;;;;;5023236;28;20031;-68
2022/11/18 12:23:25;;;;;;;19.98;11.32;;;5.70;99.90;;;;;;4994173;28;20038;-68
2022/11/18 12:25:51;;;;;;;19.73;11.18;;;5.80;99.90;;;;;;5010219;28;20038;-68
2022/11/18 12:28:36;;;;;;;20.85;11.52;;;5.70;99.90;;;;;;5008677;28;20053;-68
2022/11/18 12:31:14;;;;;;;20.70;11.52;;;5.90;99.90;;;;;;4990451;28;20445;-68
2022/11/18 12:33:48;;;;;;;19.65;10.38;;;5.60;99.90;;;;;;5004199;28;20049;-68
2022/11/18 12:36:38;;;;;;;18.85;11.05;;;5.70;99.90;;;;;;4983571;28;20047;-68
2022/11/18 12:39:22;;;;;;;18.42;10.70;;;5.60;99.90;;;;;;5001496;28;20444;-68
2022/11/18 12:44:41;;;;;;;19.58;11.35;;;5.90;99.90;;;;;;5007624;28;20109;-68
2022/11/18 12:47:12;;;;;;;19.17;9.98;;;5.80;99.90;;;;;;5002169;28;20030;-68
2022/11/18 12:49:37;;;;;;;15.70;9.25;;;5.80;99.90;;;;;;5010347;28;20041;-68
2022/11/18 12:52:05;;;;;;;17.80;10.40;;;6.00;99.90;;;;;;5011292;28;20038;-68
2022/11/18 12:54:47;;;;;;;15.82;9.95;;;5.90;99.90;;;;;;5010406;28;20042;-68
2022/11/18 12:57:29;;;;;;;17.42;9.75;;;5.90;99.90;;;;;;5004536;28;20034;-68
2022/11/18 12:59:55;;;;;;;16.13;9.63;;;5.70;99.90;;;;;;5000330;28;20026;-68
2022/11/18 13:02:29;;;;;;;17.15;9.98;;;5.80;99.90;;;;;;4990348;28;20061;-68
2022/11/18 13:05:23;;;;;;;14.38;8.35;;;5.60;99.90;;;;;;4994441;28;20578;-69
2022/11/18 13:08:15;;;;;;;16.95;9.35;;;5.70;99.90;;;;;;4990708;28;20082;-68
2022/11/18 13:13:45;;;;;;;20.27;11.85;;;5.80;99.90;;;;;;5008423;28;20038;-68
2022/11/18 13:19:02;;;;;;;19.00;11.68;;;5.60;99.90;;;;;;5011963;28;20054;-68
2022/11/18 13:24:26;;;;;;;20.95;12.10;;;5.50;99.90;;;;;;5000528;28;20053;-68